createdAt,value
2018-03-03T00:00:08.335Z,3.70
2018-03-03T00:01:10.084Z,3.70
2018-03-03T00:02:11.158Z,3.70
2018-03-03T00:03:12.227Z,3.80
2018-03-03T00:04:13.283Z,3.80
2018-03-03T00:05:14.355Z,3.80
2018-03-03T00:06:16.156Z,3.70
2018-03-03T00:07:17.240Z,3.70
2018-03-03T00:08:19.040Z,3.80
2018-03-03T00:09:20.119Z,3.80
2018-03-03T00:10:21.184Z,3.80
2018-03-03T00:11:22.271Z,3.80
2018-03-03T00:12:23.363Z,3.80
2018-03-03T00:13:24.432Z,3.80
2018-03-03T00:14:25.484Z,3.70
2018-03-03T00:15:26.549Z,3.70
2018-03-03T00:16:27.633Z,3.70
2018-03-03T00:17:28.704Z,3.70
2018-03-03T00:18:29.784Z,3.70
2018-03-03T00:19:30.859Z,3.60
2018-03-03T00:20:31.928Z,3.70
2018-03-03T00:21:33.000Z,3.70
2018-03-03T00:22:40.001Z,3.70
2018-03-03T00:23:41.056Z,3.70
2018-03-03T00:24:42.111Z,3.70
2018-03-03T00:25:43.209Z,3.70
2018-03-03T00:26:44.278Z,3.70
2018-03-03T00:27:45.336Z,3.70
2018-03-03T00:28:47.156Z,3.70
2018-03-03T00:29:48.212Z,3.70
2018-03-03T00:30:50.022Z,3.70
2018-03-03T00:31:51.136Z,3.70
2018-03-03T00:32:52.217Z,3.70
2018-03-03T00:33:54.041Z,3.70
2018-03-03T00:34:55.112Z,3.70
2018-03-03T00:35:56.184Z,3.70
2018-03-03T00:36:57.248Z,3.70
2018-03-03T00:37:58.312Z,3.70
2018-03-03T00:39:00.130Z,3.60
2018-03-03T00:40:01.193Z,3.60
2018-03-03T00:41:03.025Z,3.60
2018-03-03T00:42:04.117Z,3.60
2018-03-03T00:43:05.192Z,3.60
2018-03-03T00:44:06.244Z,3.60
2018-03-03T00:45:07.320Z,3.60
2018-03-03T00:46:08.380Z,3.60
2018-03-03T00:47:09.465Z,3.60
2018-03-03T00:48:11.280Z,3.60
2018-03-03T00:49:13.087Z,3.60
2018-03-03T00:50:14.162Z,3.60
2018-03-03T00:51:16.002Z,3.60
2018-03-03T00:52:17.065Z,3.60
2018-03-03T00:53:18.156Z,3.60
2018-03-03T00:54:19.225Z,3.50
2018-03-03T00:55:20.275Z,3.50
2018-03-03T00:56:21.344Z,3.50
2018-03-03T00:57:22.405Z,3.50
2018-03-03T00:58:24.231Z,3.40
2018-03-03T00:59:25.358Z,3.50
2018-03-03T01:00:26.384Z,3.50
2018-03-03T01:01:27.468Z,3.50
2018-03-03T01:02:28.546Z,3.50
2018-03-03T01:03:29.661Z,3.50
2018-03-03T01:04:30.720Z,3.50
2018-03-03T01:05:31.772Z,3.50
2018-03-03T01:06:33.595Z,3.40
2018-03-03T01:07:34.695Z,3.40
2018-03-03T01:08:35.765Z,3.40
2018-03-03T01:09:36.849Z,3.40
2018-03-03T01:10:37.920Z,3.40
2018-03-03T01:11:38.989Z,3.40
2018-03-03T01:12:40.800Z,3.40
2018-03-03T01:13:41.876Z,3.40
2018-03-03T01:14:42.949Z,3.40
2018-03-03T01:15:44.017Z,3.40
2018-03-03T01:16:45.080Z,3.40
2018-03-03T01:17:46.173Z,3.40
2018-03-03T01:18:47.236Z,3.20
2018-03-03T01:19:49.063Z,3.30
2018-03-03T01:20:50.128Z,3.30
2018-03-03T01:21:51.921Z,3.20
2018-03-03T01:22:52.977Z,3.20
2018-03-03T01:23:54.072Z,3.20
2018-03-03T01:24:55.129Z,3.20
2018-03-03T01:25:56.200Z,3.10
2018-03-03T01:26:57.275Z,3.10
2018-03-03T01:27:58.335Z,3.10
2018-03-03T01:28:59.424Z,3.10
2018-03-03T01:30:00.471Z,3.10
2018-03-03T01:31:01.532Z,3.20
2018-03-03T01:32:02.592Z,3.10
2018-03-03T01:33:04.391Z,3.20
2018-03-03T01:34:05.461Z,3.20
2018-03-03T01:35:07.267Z,3.20
2018-03-03T01:36:08.345Z,3.20
2018-03-03T01:37:09.423Z,3.20
2018-03-03T01:38:10.512Z,3.20
2018-03-03T01:39:12.352Z,3.20
2018-03-03T01:40:13.412Z,3.20
2018-03-03T01:41:14.478Z,3.20
2018-03-03T01:42:15.544Z,3.30
2018-03-03T01:43:16.603Z,3.20
2018-03-03T01:44:17.667Z,3.20
2018-03-03T01:45:18.724Z,3.20
2018-03-03T01:46:19.779Z,3.10
2018-03-03T01:47:21.575Z,3.10
2018-03-03T01:48:22.631Z,3.10
2018-03-03T01:49:23.735Z,3.10
2018-03-03T01:50:24.788Z,3.10
2018-03-03T01:51:38.252Z,3.10
2018-03-03T01:52:39.323Z,3.10
2018-03-03T01:53:40.404Z,3.00
2018-03-03T01:54:42.216Z,3.00
2018-03-03T01:55:43.295Z,3.20
2018-03-03T01:56:44.375Z,3.00
2018-03-03T01:57:45.461Z,2.90
2018-03-03T01:58:46.528Z,3.00
2018-03-03T01:59:47.587Z,3.10
2018-03-03T02:00:48.661Z,3.10
2018-03-03T02:01:50.484Z,3.10
2018-03-03T02:02:51.547Z,3.10
2018-03-03T02:03:52.613Z,3.10
2018-03-03T02:04:53.688Z,3.10
2018-03-03T02:05:55.493Z,3.10
2018-03-03T02:06:56.555Z,3.10
2018-03-03T02:07:57.620Z,3.10
2018-03-03T02:08:59.436Z,3.00
2018-03-03T02:10:00.521Z,3.00
2018-03-03T02:11:01.579Z,2.90
2018-03-03T02:12:02.652Z,3.00
2018-03-03T02:13:04.460Z,3.00
2018-03-03T02:14:05.528Z,3.00
2018-03-03T02:15:07.336Z,3.00
2018-03-03T02:16:08.403Z,3.00
2018-03-03T02:17:09.466Z,3.00
2018-03-03T02:18:10.539Z,3.00
2018-03-03T02:19:11.595Z,3.00
2018-03-03T02:20:13.412Z,3.00
2018-03-03T02:21:14.469Z,3.00
2018-03-03T02:22:15.528Z,3.00
2018-03-03T02:23:16.591Z,3.00
2018-03-03T02:24:17.640Z,3.00
2018-03-03T02:25:18.753Z,3.00
2018-03-03T02:26:20.524Z,3.00
2018-03-03T02:27:21.620Z,3.00
2018-03-03T02:28:22.711Z,3.00
2018-03-03T02:29:23.773Z,3.00
2018-03-03T02:30:24.856Z,3.00
2018-03-03T02:31:25.943Z,2.80
2018-03-03T02:32:27.027Z,3.00
2018-03-03T02:33:28.093Z,3.00
2018-03-03T02:34:29.166Z,3.00
2018-03-03T02:35:30.236Z,3.00
2018-03-03T02:36:31.295Z,3.00
2018-03-03T02:37:32.358Z,3.00
2018-03-03T02:38:33.412Z,3.00
2018-03-03T02:39:34.468Z,3.00
2018-03-03T02:40:35.537Z,3.00
2018-03-03T02:41:37.361Z,2.90
2018-03-03T02:42:39.167Z,2.90
2018-03-03T02:43:40.229Z,2.90
2018-03-03T02:44:41.313Z,2.90
2018-03-03T02:45:42.362Z,2.90
2018-03-03T02:46:43.432Z,2.90
2018-03-03T02:47:45.250Z,2.80
2018-03-03T02:48:46.325Z,2.90
2018-03-03T02:49:48.139Z,2.80
2018-03-03T02:50:49.212Z,2.80
2018-03-03T02:51:50.289Z,2.90
2018-03-03T02:52:51.364Z,2.90
2018-03-03T02:53:52.418Z,2.80
2018-03-03T02:54:53.488Z,2.90
2018-03-03T02:55:54.570Z,2.90
2018-03-03T02:56:55.644Z,2.90
2018-03-03T02:57:56.720Z,2.90
2018-03-03T02:58:57.784Z,2.90
2018-03-03T02:59:58.860Z,3.00
2018-03-03T03:00:59.928Z,2.80
2018-03-03T03:02:01.024Z,2.90
2018-03-03T03:03:02.132Z,2.80
2018-03-03T03:04:03.224Z,2.80
2018-03-03T03:05:05.040Z,2.80
2018-03-03T03:06:06.117Z,2.80
2018-03-03T03:07:07.225Z,2.80
2018-03-03T03:08:09.047Z,2.80
2018-03-03T03:09:10.136Z,2.80
2018-03-03T03:10:11.234Z,2.80
2018-03-03T03:11:13.068Z,2.80
2018-03-03T03:12:14.131Z,2.80
2018-03-03T03:13:15.956Z,2.70
2018-03-03T03:14:17.070Z,2.70
2018-03-03T03:15:18.159Z,2.80
2018-03-03T03:16:19.249Z,2.70
2018-03-03T03:17:20.337Z,2.70
2018-03-03T03:18:21.412Z,2.70
2018-03-03T03:19:22.490Z,2.70
2018-03-03T03:20:23.567Z,2.60
2018-03-03T03:21:24.653Z,2.70
2018-03-03T03:22:25.726Z,2.70
2018-03-03T03:23:26.818Z,2.60
2018-03-03T03:24:27.925Z,2.60
2018-03-03T03:25:29.020Z,2.60
2018-03-03T03:26:30.115Z,2.60
2018-03-03T03:27:31.224Z,2.60
2018-03-03T03:28:33.052Z,2.60
2018-03-03T03:29:34.123Z,2.60
2018-03-03T03:30:35.203Z,2.60
2018-03-03T03:31:36.305Z,2.60
2018-03-03T03:32:37.397Z,2.60
2018-03-03T03:33:39.231Z,2.60
2018-03-03T03:34:40.314Z,2.60
2018-03-03T03:35:41.399Z,2.60
2018-03-03T03:36:42.480Z,2.60
2018-03-03T03:37:43.556Z,2.40
2018-03-03T03:38:44.656Z,2.60
2018-03-03T03:39:45.736Z,2.60
2018-03-03T03:40:46.816Z,2.70
2018-03-03T03:41:47.900Z,2.70
2018-03-03T03:42:48.969Z,2.70
2018-03-03T03:43:50.049Z,2.60
2018-03-03T03:44:51.115Z,2.60
2018-03-03T03:45:52.936Z,2.70
2018-03-03T03:46:54.028Z,2.60
2018-03-03T03:47:55.110Z,2.60
2018-03-03T03:48:56.176Z,2.70
2018-03-03T03:49:57.267Z,2.60
2018-03-03T03:50:58.359Z,2.60
2018-03-03T03:51:59.447Z,2.70
2018-03-03T03:53:00.509Z,2.70
2018-03-03T03:54:01.598Z,2.70
2018-03-03T03:55:02.685Z,2.70
2018-03-03T03:56:03.763Z,2.70
2018-03-03T03:57:04.872Z,2.70
2018-03-03T03:58:05.960Z,2.70
2018-03-03T03:59:07.044Z,2.70
2018-03-03T04:00:08.120Z,2.70
2018-03-03T04:01:09.229Z,2.70
2018-03-03T04:02:11.080Z,2.60
2018-03-03T04:03:12.201Z,2.60
2018-03-03T04:04:13.315Z,2.70
2018-03-03T04:05:14.367Z,2.70
2018-03-03T04:06:15.447Z,2.70
2018-03-03T04:07:16.558Z,2.70
2018-03-03T04:08:18.388Z,2.60
2018-03-03T04:09:19.465Z,2.60
2018-03-03T04:10:20.536Z,2.60
2018-03-03T04:11:21.625Z,2.60
2018-03-03T04:12:22.711Z,2.60
2018-03-03T04:13:23.794Z,2.60
2018-03-03T04:14:24.853Z,2.60
2018-03-03T04:15:25.936Z,2.60
2018-03-03T04:16:27.757Z,2.60
2018-03-03T04:17:28.855Z,2.60
2018-03-03T04:18:29.947Z,2.60
2018-03-03T04:19:31.767Z,2.50
2018-03-03T04:20:32.836Z,2.50
2018-03-03T04:21:34.661Z,2.50
2018-03-03T04:22:35.741Z,2.50
2018-03-03T04:23:36.827Z,2.50
2018-03-03T04:24:37.912Z,2.50
2018-03-03T04:25:39.009Z,2.60
2018-03-03T04:26:40.107Z,2.30
2018-03-03T04:27:41.238Z,2.50
2018-03-03T04:28:42.322Z,2.50
2018-03-03T04:29:43.411Z,2.50
2018-03-03T04:30:44.526Z,2.50
2018-03-03T04:31:45.711Z,2.50
2018-03-03T04:32:46.851Z,2.50
2018-03-03T04:33:48.685Z,2.50
2018-03-03T04:34:49.768Z,2.50
2018-03-03T04:35:50.869Z,2.50
2018-03-03T04:36:52.702Z,2.50
2018-03-03T04:37:54.551Z,2.50
2018-03-03T04:38:56.394Z,2.40
2018-03-03T04:39:57.452Z,2.40
2018-03-03T04:40:59.264Z,2.40
2018-03-03T04:42:00.344Z,2.40
2018-03-03T04:43:01.411Z,2.40
2018-03-03T04:44:02.516Z,2.40
2018-03-03T04:45:04.346Z,2.40
2018-03-03T04:46:06.170Z,2.40
2018-03-03T04:47:07.265Z,2.40
2018-03-03T04:48:08.372Z,2.40
2018-03-03T04:49:09.490Z,2.40
2018-03-03T04:50:10.588Z,2.40
2018-03-03T04:51:11.701Z,2.40
2018-03-03T04:52:12.805Z,2.40
2018-03-03T04:53:13.919Z,2.40
2018-03-03T04:54:15.028Z,2.30
2018-03-03T04:55:16.129Z,2.30
2018-03-03T04:56:17.216Z,2.30
2018-03-03T04:57:18.315Z,2.30
2018-03-03T04:58:20.204Z,2.30
2018-03-03T04:59:21.299Z,2.30
2018-03-03T05:01:58.436Z,2.30
2018-03-03T05:03:05.603Z,2.20
2018-03-03T05:04:25.476Z,2.20
2018-03-03T05:05:38.455Z,2.20
2018-03-03T05:06:43.417Z,2.20
2018-03-03T05:07:50.545Z,2.10
2018-03-03T05:08:51.656Z,2.10
2018-03-03T05:09:52.751Z,2.10
2018-03-03T05:10:53.840Z,2.10
2018-03-03T05:11:55.694Z,2.10
2018-03-03T05:12:57.613Z,2.00
2018-03-03T05:14:01.669Z,2.00
2018-03-03T05:15:08.948Z,2.00
2018-03-03T05:16:15.996Z,2.00
2018-03-03T05:17:32.828Z,2.00
2018-03-03T05:18:53.756Z,1.80
2018-03-03T05:19:57.059Z,2.00
2018-03-03T05:21:01.973Z,2.00
2018-03-03T05:22:09.000Z,1.90
2018-03-03T05:23:16.024Z,1.90
2018-03-03T05:25:50.779Z,1.80
2018-03-03T05:26:56.721Z,1.70
2018-03-03T05:28:03.802Z,1.70
2018-03-03T05:29:10.904Z,1.70
2018-03-03T05:30:13.842Z,1.70
2018-03-03T05:31:30.893Z,1.70
2018-03-03T05:32:31.998Z,1.70
2018-03-03T05:33:37.919Z,1.70
2018-03-03T05:34:44.992Z,1.70
2018-03-03T05:35:52.055Z,1.70
2018-03-03T05:36:58.015Z,1.70
2018-03-03T05:38:05.306Z,1.70
2018-03-03T05:39:12.405Z,1.70
2018-03-03T05:40:19.473Z,1.70
2018-03-03T05:41:39.595Z,1.70
2018-03-03T05:42:46.763Z,1.70
2018-03-03T05:44:07.672Z,1.70
2018-03-03T05:45:14.824Z,1.70
2018-03-03T05:46:22.093Z,1.70
2018-03-03T05:47:35.215Z,1.70
2018-03-03T05:48:39.864Z,1.70
2018-03-03T05:51:13.576Z,1.70
2018-03-03T05:52:20.697Z,1.70
2018-03-03T05:53:38.548Z,1.70
2018-03-03T05:54:45.675Z,1.80
2018-03-03T05:56:05.343Z,1.70
2018-03-03T05:58:30.876Z,1.70
2018-03-03T05:59:38.137Z,1.70
2018-03-03T06:00:45.989Z,1.70
2018-03-03T06:01:53.090Z,1.60
2018-03-03T06:03:01.108Z,1.60
2018-03-03T06:05:35.576Z,1.60
2018-03-03T06:06:41.520Z,1.60
2018-03-03T06:07:48.782Z,1.50
2018-03-03T06:09:06.388Z,1.60
2018-03-03T06:10:10.452Z,1.60
2018-03-03T06:11:12.300Z,1.60
2018-03-03T06:12:13.383Z,1.60
2018-03-03T06:13:14.476Z,1.60
2018-03-03T06:14:15.615Z,1.60
2018-03-03T06:15:16.668Z,1.60
2018-03-03T06:16:17.757Z,1.60
2018-03-03T06:17:18.832Z,1.60
2018-03-03T06:18:19.904Z,1.50
2018-03-03T06:19:20.975Z,1.50
2018-03-03T06:20:22.069Z,1.50
2018-03-03T06:21:23.142Z,1.60
2018-03-03T06:22:24.231Z,1.50
2018-03-03T06:23:25.317Z,1.60
2018-03-03T06:24:26.391Z,1.60
2018-03-03T06:25:27.475Z,1.60
2018-03-03T06:26:28.584Z,1.60
2018-03-03T06:27:29.656Z,1.60
2018-03-03T06:28:30.727Z,1.60
2018-03-03T06:29:31.810Z,1.70
2018-03-03T06:30:32.926Z,1.70
2018-03-03T06:31:33.991Z,1.70
2018-03-03T06:32:35.068Z,1.70
2018-03-03T06:33:36.179Z,1.70
2018-03-03T06:34:37.996Z,1.70
2018-03-03T06:35:39.102Z,1.70
2018-03-03T06:36:40.177Z,1.70
2018-03-03T06:37:41.277Z,1.70
2018-03-03T06:38:42.369Z,1.70
2018-03-03T06:39:43.432Z,1.80
2018-03-03T06:40:44.517Z,1.80
2018-03-03T06:41:45.595Z,1.80
2018-03-03T06:42:47.423Z,1.80
2018-03-03T06:43:48.491Z,1.80
2018-03-03T06:44:49.560Z,1.90
2018-03-03T06:45:50.668Z,1.80
2018-03-03T06:46:51.743Z,1.80
2018-03-03T06:47:52.808Z,1.80
2018-03-03T06:48:53.888Z,1.90
2018-03-03T06:49:54.980Z,1.90
2018-03-03T06:50:56.068Z,1.90
2018-03-03T06:51:57.128Z,1.90
2018-03-03T06:52:58.936Z,1.90
2018-03-03T06:54:00.004Z,1.90
2018-03-03T06:55:01.074Z,1.90
2018-03-03T06:56:02.165Z,2.00
2018-03-03T06:57:03.253Z,1.90
2018-03-03T06:58:04.311Z,2.00
2018-03-03T06:59:05.372Z,2.00
2018-03-03T07:00:07.182Z,2.00
2018-03-03T07:01:08.256Z,1.90
2018-03-03T07:02:10.044Z,2.00
2018-03-03T07:03:11.107Z,1.90
2018-03-03T07:04:12.180Z,2.10
2018-03-03T07:05:13.268Z,2.00
2018-03-03T07:06:14.340Z,1.90
2018-03-03T07:07:16.151Z,1.90
2018-03-03T07:08:17.219Z,1.90
2018-03-03T07:09:19.051Z,1.90
2018-03-03T07:10:20.114Z,1.90
2018-03-03T07:11:21.188Z,1.90
2018-03-03T07:12:22.256Z,2.10
2018-03-03T07:13:24.081Z,1.90
2018-03-03T07:14:25.181Z,1.90
2018-03-03T07:15:26.264Z,1.90
2018-03-03T07:16:27.343Z,1.90
2018-03-03T07:17:28.428Z,1.90
2018-03-03T07:18:29.488Z,1.90
2018-03-03T07:19:30.565Z,1.90
2018-03-03T07:20:31.651Z,2.00
2018-03-03T07:21:32.736Z,2.00
2018-03-03T07:22:33.815Z,2.00
2018-03-03T07:23:34.869Z,2.00
2018-03-03T07:24:36.155Z,2.10
2018-03-03T07:25:37.219Z,2.00
2018-03-03T07:26:38.304Z,2.10
2018-03-03T07:27:39.399Z,2.00
2018-03-03T07:28:45.292Z,2.00
2018-03-03T07:29:46.552Z,2.00
2018-03-03T07:30:47.635Z,2.00
2018-03-03T07:31:48.708Z,2.10
2018-03-03T07:32:50.536Z,2.10
2018-03-03T07:33:51.619Z,2.00
2018-03-03T07:34:52.709Z,2.10
2018-03-03T07:35:54.540Z,2.00
2018-03-03T07:36:55.651Z,2.00
2018-03-03T07:37:56.736Z,2.00
2018-03-03T07:38:58.548Z,2.10
2018-03-03T07:39:59.645Z,2.00
2018-03-03T07:41:00.720Z,2.10
2018-03-03T07:42:01.828Z,2.10
2018-03-03T07:43:02.917Z,2.10
2018-03-03T07:44:05.140Z,2.10
2018-03-03T07:45:06.249Z,2.10
2018-03-03T07:46:07.346Z,2.20
2018-03-03T07:47:08.464Z,2.20
2018-03-03T07:48:09.555Z,2.20
2018-03-03T07:49:10.661Z,2.20
2018-03-03T07:50:11.777Z,2.20
2018-03-03T07:51:12.903Z,2.10
2018-03-03T07:52:14.736Z,2.10
2018-03-03T07:53:15.855Z,2.10
2018-03-03T07:54:16.963Z,2.10
2018-03-03T07:55:18.796Z,2.10
2018-03-03T07:56:19.881Z,2.20
2018-03-03T07:57:21.761Z,2.10
2018-03-03T07:58:35.045Z,2.10
2018-03-03T07:59:36.226Z,2.10
2018-03-03T08:00:37.311Z,2.20
2018-03-03T08:01:38.423Z,2.20
2018-03-03T08:02:39.582Z,2.20
2018-03-03T08:03:41.438Z,2.30
2018-03-03T08:04:42.528Z,2.30
2018-03-03T08:05:43.636Z,2.30
2018-03-03T08:06:44.699Z,2.30
2018-03-03T08:07:45.803Z,2.30
2018-03-03T08:08:46.916Z,2.30
2018-03-03T08:09:48.747Z,2.40
2018-03-03T08:10:49.821Z,2.40
2018-03-03T08:11:50.890Z,2.40
2018-03-03T08:12:52.039Z,2.50
2018-03-03T08:13:53.092Z,2.60
2018-03-03T08:14:54.918Z,2.60
2018-03-03T08:15:56.028Z,2.60
2018-03-03T08:16:57.160Z,2.70
2018-03-03T08:17:58.256Z,2.60
2018-03-03T08:18:59.352Z,2.70
2018-03-03T08:20:00.432Z,2.70
2018-03-03T08:21:01.528Z,2.70
2018-03-03T08:22:02.596Z,2.80
2018-03-03T08:23:03.712Z,2.90
2018-03-03T08:24:04.808Z,2.90
2018-03-03T08:25:05.884Z,2.90
2018-03-03T08:26:06.960Z,2.90
2018-03-03T08:27:08.035Z,2.90
2018-03-03T08:28:09.888Z,3.00
2018-03-03T08:29:11.708Z,3.10
2018-03-03T08:30:12.801Z,3.00
2018-03-03T08:31:13.870Z,3.10
2018-03-03T08:32:15.012Z,3.10
2018-03-03T08:33:16.136Z,3.20
2018-03-03T08:34:17.206Z,3.20
2018-03-03T08:35:19.036Z,3.30
2018-03-03T08:36:20.149Z,3.30
2018-03-03T08:37:21.244Z,3.30
2018-03-03T08:38:22.343Z,3.30
2018-03-03T08:39:24.168Z,3.40
2018-03-03T08:40:25.279Z,3.40
2018-03-03T08:41:26.360Z,3.50
2018-03-03T08:42:27.468Z,3.50
2018-03-03T08:43:28.591Z,3.50
2018-03-03T08:44:29.680Z,3.50
2018-03-03T08:45:30.802Z,3.50
2018-03-03T08:46:31.893Z,3.40
2018-03-03T08:47:32.973Z,3.40
2018-03-03T08:48:34.060Z,3.40
2018-03-03T08:49:35.152Z,3.50
2018-03-03T08:50:36.326Z,3.50
2018-03-03T08:51:37.436Z,3.50
2018-03-03T08:52:38.526Z,3.50
2018-03-03T08:53:39.656Z,3.60
2018-03-03T08:54:41.489Z,3.60
2018-03-03T08:55:42.575Z,3.60
2018-03-03T08:56:43.657Z,3.60
2018-03-03T08:57:44.747Z,3.60
2018-03-03T08:58:45.840Z,3.60
2018-03-03T08:59:46.948Z,3.60
2018-03-03T09:00:48.082Z,3.70
2018-03-03T09:01:49.189Z,3.70
2018-03-03T09:02:50.301Z,3.70
2018-03-03T09:03:51.396Z,3.80
2018-03-03T09:04:53.234Z,3.80
2018-03-03T09:05:54.333Z,3.80
2018-03-03T09:06:55.423Z,3.80
2018-03-03T09:07:56.520Z,3.80
2018-03-03T09:08:58.383Z,3.90
2018-03-03T09:10:00.216Z,3.90
2018-03-03T09:11:01.332Z,3.90
2018-03-03T09:12:02.423Z,4.00
2018-03-03T09:13:03.544Z,4.00
2018-03-03T09:14:04.648Z,4.00
2018-03-03T09:15:05.747Z,4.10
2018-03-03T09:16:06.848Z,4.10
2018-03-03T09:17:07.948Z,4.20
2018-03-03T09:18:09.716Z,4.20
2018-03-03T09:19:10.820Z,4.20
2018-03-03T09:20:11.903Z,4.20
2018-03-03T09:21:13.743Z,4.20
2018-03-03T09:22:14.844Z,4.20
2018-03-03T09:23:15.915Z,4.30
2018-03-03T09:24:16.984Z,4.20
2018-03-03T09:25:18.131Z,4.20
2018-03-03T09:26:19.964Z,4.20
2018-03-03T09:27:21.044Z,4.20
2018-03-03T09:28:22.873Z,4.20
2018-03-03T09:29:23.972Z,4.20
2018-03-03T09:30:25.054Z,4.20
2018-03-03T09:31:26.148Z,4.30
2018-03-03T09:32:27.232Z,4.40
2018-03-03T09:33:29.040Z,4.40
2018-03-03T09:34:30.164Z,4.50
2018-03-03T09:35:31.260Z,4.50
2018-03-03T09:36:32.359Z,4.30
2018-03-03T09:37:33.441Z,4.50
2018-03-03T09:38:34.528Z,4.50
2018-03-03T09:39:35.624Z,4.50
2018-03-03T09:40:36.733Z,4.50
2018-03-03T09:41:37.815Z,4.60
2018-03-03T09:42:38.876Z,4.50
2018-03-03T09:43:40.733Z,4.60
2018-03-03T09:44:42.539Z,4.70
2018-03-03T09:45:43.621Z,4.70
2018-03-03T09:46:44.693Z,4.90
2018-03-03T09:47:45.772Z,4.80
2018-03-03T09:48:46.854Z,4.90
2018-03-03T09:49:47.944Z,4.90
2018-03-03T09:50:49.042Z,5.00
2018-03-03T09:51:50.121Z,5.00
2018-03-03T09:52:51.184Z,5.10
2018-03-03T09:53:52.240Z,5.10
2018-03-03T09:54:53.328Z,5.10
2018-03-03T09:55:54.390Z,5.20
2018-03-03T09:56:55.447Z,5.20
2018-03-03T09:57:56.499Z,5.20
2018-03-03T09:58:58.311Z,5.40
2018-03-03T09:59:59.404Z,5.30
2018-03-03T10:01:00.489Z,5.40
2018-03-03T10:02:06.290Z,5.40
2018-03-03T10:03:02.674Z,5.50
2018-03-03T10:04:03.749Z,5.50
2018-03-03T10:05:04.836Z,5.30
2018-03-03T10:06:06.638Z,5.70
2018-03-03T10:07:07.696Z,5.60
2018-03-03T10:08:08.774Z,5.70
2018-03-03T10:09:09.942Z,5.70
2018-03-03T10:10:11.056Z,5.70
2018-03-03T10:11:12.892Z,5.80
2018-03-03T10:12:13.978Z,5.80
2018-03-03T10:13:15.064Z,5.60
2018-03-03T10:14:16.152Z,5.80
2018-03-03T10:15:17.960Z,5.80
2018-03-03T10:16:19.063Z,5.80
2018-03-03T10:17:20.100Z,5.80
2018-03-03T10:18:21.172Z,5.90
2018-03-03T10:19:22.264Z,5.90
2018-03-03T10:20:23.365Z,5.90
2018-03-03T10:21:25.176Z,5.90
2018-03-03T10:22:26.271Z,5.90
2018-03-03T10:23:27.348Z,5.90
2018-03-03T10:24:28.449Z,6.00
2018-03-03T10:25:29.538Z,6.00
2018-03-03T10:26:31.353Z,6.10
2018-03-03T10:27:32.413Z,6.10
2018-03-03T10:28:33.481Z,6.10
2018-03-03T10:29:34.544Z,6.20
2018-03-03T10:30:35.609Z,6.20
2018-03-03T10:31:37.428Z,6.30
2018-03-03T10:32:38.485Z,6.30
2018-03-03T10:33:39.544Z,6.40
2018-03-03T10:34:40.608Z,6.40
2018-03-03T10:35:41.689Z,6.40
2018-03-03T10:36:42.748Z,6.40
2018-03-03T10:37:43.812Z,6.40
2018-03-03T10:38:44.873Z,6.50
2018-03-03T10:39:45.983Z,6.50
2018-03-03T10:40:47.053Z,6.40
2018-03-03T10:41:48.117Z,6.40
2018-03-03T10:42:49.172Z,6.50
2018-03-03T10:43:50.995Z,6.50
2018-03-03T10:44:52.052Z,6.50
2018-03-03T10:45:53.180Z,6.50
2018-03-03T10:46:54.276Z,6.60
2018-03-03T10:47:56.079Z,6.70
2018-03-03T10:48:57.151Z,6.70
2018-03-03T10:49:58.223Z,6.80
2018-03-03T10:50:59.315Z,6.80
2018-03-03T10:52:00.376Z,6.90
2018-03-03T10:53:01.440Z,6.90
2018-03-03T10:54:02.528Z,6.90
2018-03-03T10:55:03.602Z,7.00
2018-03-03T10:56:04.676Z,7.00
2018-03-03T10:57:05.765Z,7.00
2018-03-03T10:58:06.825Z,7.10
2018-03-03T10:59:07.880Z,7.10
2018-03-03T11:00:08.972Z,7.20
2018-03-03T11:01:10.076Z,7.20
2018-03-03T11:02:11.153Z,7.30
2018-03-03T11:03:12.215Z,7.30
2018-03-03T11:04:14.034Z,7.40
2018-03-03T11:05:15.105Z,7.40
2018-03-03T11:06:16.198Z,7.40
2018-03-03T11:07:18.020Z,7.50
2018-03-03T11:08:19.104Z,7.50
2018-03-03T11:09:20.927Z,7.50
2018-03-03T11:10:22.042Z,7.50
2018-03-03T11:11:23.114Z,7.50
2018-03-03T11:12:24.911Z,7.60
2018-03-03T11:13:25.991Z,7.60
2018-03-03T11:14:27.800Z,7.70
2018-03-03T11:15:28.884Z,7.70
2018-03-03T11:16:30.712Z,7.70
2018-03-03T11:17:31.814Z,7.70
2018-03-03T11:18:32.874Z,7.80
2018-03-03T11:19:34.049Z,7.80
2018-03-03T11:20:35.152Z,7.90
2018-03-03T11:21:36.984Z,7.90
2018-03-03T11:22:38.064Z,7.90
2018-03-03T11:23:39.158Z,7.90
2018-03-03T11:24:40.281Z,7.90
2018-03-03T11:25:42.119Z,8.00
2018-03-03T11:26:43.205Z,8.00
2018-03-03T11:27:44.264Z,8.00
2018-03-03T11:28:45.357Z,8.00
2018-03-03T11:29:46.412Z,8.00
2018-03-03T11:30:47.464Z,8.10
2018-03-03T11:31:48.555Z,8.10
2018-03-03T11:32:50.357Z,8.20
2018-03-03T11:33:51.419Z,8.20
2018-03-03T11:34:53.227Z,8.30
2018-03-03T11:35:54.285Z,8.30
2018-03-03T11:36:55.375Z,8.40
2018-03-03T11:37:56.461Z,8.40
2018-03-03T11:38:58.306Z,8.50
2018-03-03T11:39:59.355Z,8.50
2018-03-03T11:41:01.176Z,8.60
2018-03-03T11:42:02.248Z,8.60
2018-03-03T11:43:03.373Z,8.70
2018-03-03T11:44:04.440Z,8.70
2018-03-03T11:45:05.517Z,8.80
2018-03-03T11:46:06.575Z,8.90
2018-03-03T11:47:07.764Z,8.90
2018-03-03T11:48:08.831Z,8.90
2018-03-03T11:49:10.758Z,9.00
2018-03-03T11:50:11.873Z,9.00
2018-03-03T11:51:12.951Z,9.00
2018-03-03T11:52:15.141Z,9.10
2018-03-03T11:53:17.060Z,9.20
2018-03-03T11:54:18.200Z,9.10
2018-03-03T11:55:19.284Z,9.10
2018-03-03T11:56:20.364Z,9.20
2018-03-03T11:57:22.172Z,9.20
2018-03-03T11:58:23.239Z,9.20
2018-03-03T11:59:25.051Z,9.20
2018-03-03T12:00:26.120Z,9.20
2018-03-03T12:01:27.919Z,9.20
2018-03-03T12:02:29.030Z,9.30
2018-03-03T12:03:30.092Z,9.30
2018-03-03T12:04:31.151Z,9.30
2018-03-03T12:05:32.222Z,9.40
2018-03-03T12:06:33.280Z,9.40
2018-03-03T12:07:34.340Z,9.40
2018-03-03T12:08:36.164Z,9.50
2018-03-03T12:09:37.231Z,9.50
2018-03-03T12:10:38.285Z,9.50
2018-03-03T12:11:39.356Z,9.50
2018-03-03T12:12:40.424Z,9.50
2018-03-03T12:13:41.488Z,9.50
2018-03-03T12:14:42.548Z,9.60
2018-03-03T12:15:43.611Z,9.60
2018-03-03T12:16:44.705Z,9.60
2018-03-03T12:17:45.755Z,9.60
2018-03-03T12:18:46.804Z,9.60
2018-03-03T12:19:47.920Z,9.60
2018-03-03T12:20:48.995Z,9.60
2018-03-03T12:21:50.048Z,9.60
2018-03-03T12:22:51.099Z,9.60
2018-03-03T12:23:52.163Z,9.60
2018-03-03T12:24:53.240Z,9.60
2018-03-03T12:25:54.318Z,9.70
2018-03-03T12:26:55.411Z,9.70
2018-03-03T12:27:56.489Z,9.70
2018-03-03T12:28:57.577Z,9.70
2018-03-03T12:29:58.608Z,9.80
2018-03-03T12:30:59.654Z,9.70
2018-03-03T12:32:00.734Z,9.80
2018-03-03T12:33:02.552Z,9.90
2018-03-03T12:34:03.620Z,9.80
2018-03-03T12:35:05.419Z,9.90
2018-03-03T12:36:06.496Z,9.90
2018-03-03T12:37:07.563Z,10.00
2018-03-03T12:38:08.660Z,10.00
2018-03-03T12:39:10.479Z,10.10
2018-03-03T12:40:11.573Z,10.10
2018-03-03T12:41:12.656Z,10.20
2018-03-03T12:42:13.742Z,10.20
2018-03-03T12:43:14.862Z,10.30
2018-03-03T12:44:15.939Z,10.30
2018-03-03T12:45:18.245Z,10.30
2018-03-03T12:46:19.327Z,10.20
2018-03-03T12:47:20.432Z,10.40
2018-03-03T12:48:21.488Z,10.50
2018-03-03T12:49:22.574Z,10.50
2018-03-03T12:50:23.668Z,10.60
2018-03-03T12:51:25.655Z,10.60
2018-03-03T12:52:27.603Z,10.60
2018-03-03T12:53:28.644Z,10.60
2018-03-03T12:54:29.693Z,10.60
2018-03-03T12:55:30.832Z,10.70
2018-03-03T12:56:31.887Z,10.70
2018-03-03T12:57:32.956Z,10.80
2018-03-03T12:58:34.052Z,10.80
2018-03-03T12:59:35.103Z,10.80
2018-03-03T13:00:36.176Z,10.80
2018-03-03T13:01:37.347Z,10.80
2018-03-03T13:02:38.447Z,10.90
2018-03-03T13:03:39.565Z,10.90
2018-03-03T13:04:40.631Z,10.90
2018-03-03T13:05:41.780Z,10.90
2018-03-03T13:06:42.835Z,11.00
2018-03-03T13:07:44.627Z,11.00
2018-03-03T13:08:45.776Z,11.00
2018-03-03T13:09:46.906Z,11.10
2018-03-03T13:10:48.108Z,11.10
2018-03-03T13:11:49.194Z,11.20
2018-03-03T13:12:50.349Z,11.20
2018-03-03T13:13:51.384Z,11.30
2018-03-03T13:14:52.447Z,11.30
2018-03-03T13:15:54.589Z,11.40
2018-03-03T13:16:55.635Z,11.40
2018-03-03T13:17:56.700Z,11.40
2018-03-03T13:18:57.788Z,11.50
2018-03-03T13:19:59.786Z,11.50
2018-03-03T13:21:00.899Z,11.50
2018-03-03T13:22:01.971Z,11.50
2018-03-03T13:23:03.060Z,11.50
2018-03-03T13:24:04.132Z,11.50
2018-03-03T13:25:05.208Z,11.50
2018-03-03T13:26:06.276Z,11.50
2018-03-03T13:27:07.343Z,11.60
2018-03-03T13:28:08.414Z,11.70
2018-03-03T13:29:09.473Z,11.70
2018-03-03T13:30:10.542Z,11.80
2018-03-03T13:31:11.604Z,11.80
2018-03-03T13:32:13.424Z,11.80
2018-03-03T13:33:14.497Z,11.80
2018-03-03T13:34:15.555Z,11.80
2018-03-03T13:35:16.625Z,11.80
2018-03-03T13:36:17.680Z,11.70
2018-03-03T13:37:19.514Z,11.70
2018-03-03T13:38:20.584Z,11.70
2018-03-03T13:39:21.695Z,11.80
2018-03-03T13:40:22.765Z,11.80
2018-03-03T13:41:23.850Z,11.80
2018-03-03T13:42:25.656Z,11.70
2018-03-03T13:43:26.747Z,11.70
2018-03-03T13:44:27.817Z,11.70
2018-03-03T13:45:28.893Z,11.80
2018-03-03T13:46:30.694Z,11.90